Latest Weather Observations for Cooma Airport

IDN60901

Issued at 8:31 am EST Sunday 25 September 2016 (issued every 10 minutes, with the page automatically refreshed every 10 minutes)

About weather observations | Map of Canberra area stations | Latest observations for Canberra area | Other Formats
Station Details ID: 070217 Name: COOMA AIRPORT AWS Lat: -36.29 Lon: 148.97 Height: 930.0 m
Data from the previous 72 hours. | See also: Recent months at Cooma Airport
Date/Time
EST
Temp
°C
App
Temp
°C
Dew
Point
°C
Rel
Hum
%
Delta-T
°C
Wind Press
QNH
hPa
Press
MSL
hPa
Rain since
9am
mm
Dir  Spd
km/h
Gust
km/h
Spd
kts
Gust
kts
25/08:30am 11.5 8.3 5.2 65 3.1 SSW 11 15 6 8 1007.0 1006.8 0.0
25/08:00am 10.9 7.5 3.9 62 3.3 WSW 11 19 6 10 1006.7 1006.4 0.0
25/07:30am 9.3 4.7 3.9 69 2.5 WNW 17 20 9 11 1006.7 1006.4 0.0
25/07:00am 9.7 6.7 4.3 69 2.5 NW 9 17 5 9 1006.5 1006.2 0.0
25/06:30am 8.1 4.7 3.9 75 1.9 NW 11 15 6 8 1006.4 1006.1 0.0
25/06:00am 7.1 3.5 3.2 76 1.8 NW 11 15 6 8 1006.4 1006.1 0.0
25/05:30am 6.0 2.7 2.6 79 1.5 NW 9 13 5 7 1006.0 1005.8 0.0
25/05:00am 6.4 3.7 2.7 77 1.6 NW 6 9 3 5 1006.3 1006.0 0.0
25/04:30am 7.5 4.6 2.6 71 2.2 WNW 7 9 4 5 1006.1 1005.9 0.0
25/04:00am 7.9 3.8 2.2 67 2.5 NW 13 17 7 9 1006.4 1006.1 0.0
25/03:30am 8.4 4.4 2.8 68 2.5 NW 13 17 7 9 1006.5 1006.2 0.0
25/03:00am 7.7 5.3 4.5 80 1.5 N 6 9 3 5 1006.8 1006.5 0.0
25/02:30am 8.2 5.6 4.4 77 1.8 NW 7 11 4 6 1006.8 1006.5 0.0
25/02:00am 8.6 7.0 4.6 76 1.9 W 2 7 1 4 1007.2 1007.0 0.0
25/01:30am 9.5 7.7 3.3 65 2.8 NNW 2 7 1 4 1007.6 1007.3 0.0
25/01:00am 9.5 6.8 3.9 68 2.6 WSW 7 13 4 7 1007.7 1007.4 0.0
25/12:30am 9.9 5.0 4.3 68 2.6 WNW 19 26 10 14 1007.8 1007.6 0.0
25/12:00am 9.5 6.5 5.9 78 1.8 W 11 15 6 8 1007.8 1007.6 0.0
 
Date/Time
EST
Temp
°C
App
Temp
°C
Dew
Point
°C
Rel
Hum
%
Delta-T
°C
Wind Press
QNH
hPa
Press
MSL
hPa
Rain since
9am
mm
Dir  Spd
km/h
Gust
km/h
Spd
kts
Gust
kts
24/11:30pm 10.1 6.3 5.7 74 2.1 WNW 15 20 8 11 1007.9 1007.7 0.0
24/11:00pm 10.2 6.4 5.6 73 2.2 NNW 15 19 8 10 1008.1 1007.9 0.0
24/10:30pm 10.2 7.2 5.8 74 2.1 NNW 11 17 6 9 1008.3 1008.1 0.0
24/10:00pm 10.0 7.8 5.4 73 2.2 NW 6 11 3 6 1008.2 1008.0 0.0
24/09:30pm 10.2 6.7 5.4 72 2.3 NW 13 17 7 9 1008.4 1008.2 0.0
24/09:00pm 8.1 5.6 4.7 79 1.6 NNW 7 9 4 5 1008.4 1008.2 0.0
24/08:30pm 9.3 6.5 5.1 75 2.0 NNW 9 11 5 6 1008.8 1008.6 0.0
24/08:00pm 9.7 6.8 4.7 71 2.4 NW 9 13 5 7 1008.9 1008.7 0.0
24/07:30pm 9.5 6.5 3.9 68 2.6 NW 9 13 5 7 1009.0 1008.8 0.0
24/07:00pm 8.9 6.2 2.7 65 2.8 NW 6 11 3 6 1008.9 1008.7 0.0
24/06:30pm 10.7 7.3 4.0 63 3.1 WNW 11 15 6 8 1008.7 1008.4 0.0
24/06:00pm 12.1 8.4 4.3 59 3.7 WNW 13 24 7 13 1008.4 1008.2 0.0
24/05:30pm 13.7 9.7 2.6 47 5.2 NW 13 20 7 11 1008.0 1007.8 0.0
24/05:00pm 15.3 10.5 2.8 43 5.9 NW 17 28 9 15 1007.8 1007.6 0.0
24/04:30pm 15.6 10.8 4.9 49 5.3 NW 19 28 10 15 1007.8 1007.6 0.0
24/04:00pm 15.6 10.7 4.9 49 5.3 NW 20 32 11 17 1007.8 1007.6 0.0
24/03:30pm 17.0 12.1 5.3 46 5.9 NNW 20 35 11 19 1007.7 1007.4 0.0
24/03:00pm 15.6 11.9 6.1 53 4.8 N 15 19 8 10 1007.6 1007.3 0.0
24/02:30pm 15.8 12.0 6.0 52 5.0 NNE 15 20 8 11 1007.4 1007.1 0.0
24/02:00pm 15.7 11.3 6.4 54 4.8 NNE 19 30 10 16 1007.9 1007.7 0.0
24/01:30pm 15.5 11.0 6.8 56 4.5 NE 20 26 11 14 1008.4 1008.2 0.0
24/01:00pm 15.5 12.1 7.5 59 4.2 NE 15 20 8 11 1008.9 1008.7 0.0
24/12:30pm 14.4 10.6 6.0 57 4.2 NNE 15 20 8 11 1009.5 1009.3 0.0
24/12:00pm 14.4 11.1 8.1 66 3.3 NE 15 24 8 13 1010.0 1009.8 0.0
24/11:30am 14.0 11.0 7.5 65 3.4 NE 13 19 7 10 1010.4 1010.2 0.0
24/11:00am 14.0 10.0 8.2 68 3.0 NE 19 24 10 13 1010.9 1010.7 0.0
24/10:30am 13.1 9.9 9.9 81 1.7 NE 17 22 9 12 1011.4 1011.2 0.0
24/10:00am 11.4 7.6 9.1 86 1.2 NE 19 22 10 12 1011.8 1011.7 0.0
24/09:30am 9.5 5.3 7.3 86 1.1 NE 19 24 10 13 1012.2 1012.0 0.0
24/09:06am 7.6 3.4 7.5 99 0.0 NE 19 22 10 12 1012.5 1012.4 0.0
24/09:00am 7.0 3.1 6.9 99 0.0 NE 17 20 9 11 1012.6 1012.5 0.0
24/08:49am 6.7 3.1 6.7 100 0.0 NE 15 19 8 10 1012.7 1012.6 0.0
24/08:30am 5.4 1.9 5.4 100 0.0 NE 13 15 7 8 1012.8 1012.7 0.0
24/08:00am 4.5 0.8 4.5 100 0.0 NE 13 15 7 8 1013.0 1012.9 0.0
24/07:31am 3.6 0.1 3.6 100 0.0 NE 11 17 6 9 1013.3 1013.1 0.0
24/07:30am 3.5 -0.4 3.4 99 0.0 NE 13 17 7 9 1013.3 1013.1 0.0
24/07:00am 2.4 -1.3 2.3 99 0.0 NNE 11 13 6 7 1013.3 1013.1 0.0
24/06:59am 2.4 -1.3 2.3 99 0.0 NNE 11 13 6 7 1013.3 1013.1 0.0
24/06:30am 1.2 -2.7 1.1 99 0.0 N 11 13 6 7 1012.9 1012.8 0.0
24/06:00am 1.1 -2.8 1.0 99 0.0 NNE 11 11 6 6 1012.6 1012.5 0.0
24/05:30am 1.4 -2.1 1.3 99 0.0 N 9 11 5 6 1012.5 1012.4 0.0
24/05:00am 1.2 -2.7 1.1 99 0.0 NNE 11 15 6 8 1012.5 1012.4 0.0
24/04:55am 0.9 -3.1 0.8 99 0.0 NNE 11 13 6 7 1012.6 1012.5 0.0
24/04:53am 1.0 -2.9 0.9 99 0.0 NE 11 13 6 7 1012.6 1012.5 0.0
24/04:30am 2.1 -2.0 2.0 99 0.0 NE 13 15 7 8 1012.5 1012.4 0.0
24/04:02am 2.5 -1.2 2.4 99 0.0 NE 11 15 6 8 1012.5 1012.4 0.0
24/04:00am 2.3 -1.4 2.2 99 0.0 NE 11 15 6 8 1012.5 1012.4 0.0
24/03:58am 2.0 -1.4 1.9 99 0.0 NE 9 13 5 7 1012.6 1012.5 0.0
24/03:30am 1.1 -2.4 1.0 99 0.0 NNE 9 11 5 6 1012.7 1012.6 0.0
24/03:00am 1.7 -2.1 1.6 99 0.0 N 11 13 6 7 1012.7 1012.6 0.0
24/02:30am 1.0 -2.2 0.9 99 0.0 NNE 7 9 4 5 1012.9 1012.8 0.0
24/02:09am 0.4 -2.3 0.3 99 0.0 NNE 4 9 2 5 1013.2 1013.0 0.0
24/02:02am 0.6 -1.3 0.5 99 0.0 CALM 0 0 0 0 1013.2 1013.0 0.0
24/02:00am 0.4 -1.5 0.3 99 0.0 CALM 0 0 0 0 1013.2 1013.0 0.0
24/01:44am 0.4 -1.5 0.3 99 0.0 CALM 0 0 0 0 1013.3 1013.1 0.0
24/01:42am 0.6 -1.3 0.5 99 0.0 CALM 0 0 0 0 1013.3 1013.1 0.0
24/01:30am 1.3 -0.5 1.2 99 0.0 CALM 0 0 0 0 1013.3 1013.1 0.0
24/01:20am 1.2 -0.6 1.1 99 0.0 CALM 0 0 0 0 1013.2 1013.0 0.0
24/01:11am 0.9 -1.0 0.8 99 0.0 CALM 0 0 0 0 1013.3 1013.1 0.0
24/01:00am 1.2 -0.6 1.1 99 0.0 CALM 0 0 0 0 1013.3 1013.1 0.0
24/12:30am 1.8 -1.1 1.7 99 0.0 N 6 6 3 3 1013.5 1013.4 0.0
24/12:00am 1.5 -0.3 1.4 99 0.0 CALM 0 0 0 0 1013.7 1013.6 0.0
 
Date/Time
EST
Temp
°C
App
Temp
°C
Dew
Point
°C
Rel
Hum
%
Delta-T
°C
Wind Press
QNH
hPa
Press
MSL
hPa
Rain since
9am
mm
Dir  Spd
km/h
Gust
km/h
Spd
kts
Gust
kts
23/11:30pm 1.5 -0.3 1.4 99 0.0 CALM 0 0 0 0 1013.8 1013.7 0.0
23/11:00pm 2.4 0.8 2.3 99 0.0 CALM 0 0 0 0 1014.0 1013.9 0.0
23/10:30pm 2.7 1.1 2.6 99 0.0 CALM 0 0 0 0 1014.1 1014.0 0.0
23/10:00pm 2.6 1.0 2.5 99 0.0 CALM 0 0 0 0 1014.1 1014.0 0.0
23/09:30pm 3.2 1.7 3.1 99 0.0 CALM 0 0 0 0 1014.4 1014.3 0.0
23/09:00pm 3.5 0.9 3.2 98 0.1 S 6 9 3 5 1014.2 1014.1 0.0
23/08:30pm 3.9 2.0 3.0 94 0.4 WNW 2 6 1 3 1014.4 1014.3 0.0
23/08:00pm 4.8 3.1 4.1 95 0.3 W 2 13 1 7 1014.4 1014.3 0.0
23/07:30pm 5.9 4.7 4.4 90 0.7 CALM 0 0 0 0 1014.2 1014.1 0.0
23/07:00pm 7.6 5.6 6.9 95 0.3 SSE 7 9 4 5 1014.2 1014.1 0.0
23/06:30pm 8.7 6.6 6.8 88 0.9 S 7 9 4 5 1014.1 1014.0 0.0
23/06:00pm 9.7 6.9 7.0 83 1.3 S 11 13 6 7 1014.1 1014.0 0.0
23/05:30pm 10.0 6.8 6.7 80 1.6 S 13 17 7 9 1014.0 1013.9 0.0
23/05:00pm 10.7 6.8 7.0 78 1.9 S 17 19 9 10 1013.9 1013.8 0.0
23/04:30pm 10.9 7.4 7.0 77 2.0 S 15 19 8 10 1013.9 1013.8 0.0
23/04:00pm 11.2 7.4 7.5 78 1.9 SSW 17 20 9 11 1013.7 1013.6 0.0
23/03:30pm 10.9 7.6 6.5 74 2.2 S 13 19 7 10 1013.7 1013.6 0.0
23/03:00pm 10.7 6.7 6.8 77 1.9 SSW 17 20 9 11 1013.9 1013.8 0.0
23/02:30pm 10.7 6.7 6.5 75 2.1 S 17 24 9 13 1014.1 1014.0 0.0
23/02:00pm 11.4 7.8 6.7 73 2.4 SW 15 24 8 13 1014.4 1014.3 0.0
23/01:30pm 11.3 7.4 7.0 75 2.2 SSW 17 22 9 12 1014.6 1014.5 0.0
23/01:00pm 10.5 6.3 5.7 72 2.3 SW 17 24 9 13 1014.8 1014.7 0.0
23/12:30pm 10.6 5.9 6.0 73 2.3 SSW 20 26 11 14 1015.0 1014.9 0.0
23/12:00pm 10.3 5.3 6.6 78 1.8 SSW 22 30 12 16 1015.2 1015.2 0.0
23/11:30am 10.4 5.0 6.4 76 2.0 SSW 24 30 13 16 1015.1 1015.0 0.0
23/11:00am 10.1 4.0 6.8 80 1.6 SSW 28 35 15 19 1015.2 1015.2 0.0
23/10:47am 10.1 4.5 7.2 82 1.5 SSW 26 33 14 18 1015.3 1015.3 0.0
23/10:30am 9.6 4.3 6.9 83 1.3 SW 24 33 13 18 1015.6 1015.5 0.0
23/10:00am 8.7 2.2 6.7 87 1.0 SSW 30 37 16 20 1015.8 1015.7 0.0
23/09:30am 8.0 2.1 5.8 86 1.1 SSW 26 32 14 17 1016.1 1016.0 0.0
23/09:00am 7.5 2.4 6.1 91 0.7 SSW 22 30 12 16 1016.1 1016.0 0.2
23/08:30am 7.4 1.5 6.0 91 0.7 SW 26 32 14 17 1015.8 1015.7 0.2
23/08:00am 7.1 2.0 6.2 94 0.4 SW 22 30 12 16 1015.8 1015.7 0.2
23/07:30am 6.7 0.8 6.0 95 0.3 SW 26 35 14 19 1015.6 1015.5 0.2
23/07:00am 6.5 -0.1 5.9 96 0.3 SW 30 35 16 19 1015.0 1014.9 0.2
23/06:30am 6.3 0.0 5.7 96 0.3 SW 28 33 15 18 1015.0 1014.9 0.2
23/06:00am 6.1 0.9 5.5 96 0.3 SSW 22 30 12 16 1014.7 1014.6 0.2
23/05:30am 6.2 1.4 5.6 96 0.3 SW 20 24 11 13 1014.5 1014.4 0.2
23/05:00am 6.4 1.2 5.7 95 0.3 SW 22 32 12 17 1014.4 1014.3 0.2
23/04:30am 6.3 1.1 5.6 95 0.3 SW 22 28 12 15 1014.0 1013.9 0.2
23/04:00am 6.2 -0.6 5.3 94 0.4 SW 30 35 16 19 1013.8 1013.7 0.2
23/03:30am 6.2 -0.2 5.3 94 0.4 SW 28 35 15 19 1013.7 1013.6 0.2
23/03:00am 6.2 -0.6 5.3 94 0.4 SW 30 37 16 20 1013.6 1013.5 0.2
23/02:30am 6.2 0.6 5.5 95 0.3 SW 24 32 13 17 1013.6 1013.5 0.2
23/02:00am 6.4 0.8 5.4 93 0.5 SW 24 28 13 15 1013.9 1013.8 0.2
23/01:30am 6.5 0.2 5.6 94 0.4 SW 28 33 15 18 1014.1 1014.0 0.2
23/01:00am 6.6 0.3 5.7 94 0.4 SW 28 35 15 19 1014.4 1014.3 0.2
23/12:30am 6.5 0.6 5.8 95 0.3 SW 26 33 14 18 1014.2 1014.1 0.2
23/12:00am 6.6 0.3 5.9 95 0.3 SW 28 35 15 19 1014.2 1014.1 0.2
 
Date/Time
EST
Temp
°C
App
Temp
°C
Dew
Point
°C
Rel
Hum
%
Delta-T
°C
Wind Press
QNH
hPa
Press
MSL
hPa
Rain since
9am
mm
Dir  Spd
km/h
Gust
km/h
Spd
kts
Gust
kts
22/11:30pm 6.7 0.4 5.8 94 0.4 SW 28 35 15 19 1014.1 1014.0 0.2
22/11:00pm 6.7 -0.5 5.8 94 0.4 SW 33 41 18 22 1013.9 1013.8 0.2
22/10:30pm 6.7 -0.9 5.7 93 0.5 SW 35 44 19 24 1013.8 1013.7 0.2
22/10:00pm 6.8 -1.2 5.7 93 0.5 SW 37 46 20 25 1013.8 1013.7 0.2
22/09:30pm 6.8 -0.5 5.6 92 0.6 SW 33 46 18 25 1013.8 1013.7 0.2
22/09:00pm 6.8 -1.6 5.7 93 0.5 SW 39 48 21 26 1013.5 1013.4 0.2
22/08:30pm 7.0 -1.4 5.6 91 0.7 SW 39 52 21 28 1013.3 1013.1 0.2
22/08:00pm 7.1 -0.9 5.6 90 0.7 SW 37 50 20 27 1013.0 1012.9 0.2
22/07:30pm 7.2 -0.8 5.5 89 0.8 SW 37 46 20 25 1013.0 1012.9 0.2
22/07:00pm 7.3 -0.3 5.8 90 0.7 SW 35 50 19 27 1012.7 1012.6 0.2
22/06:30pm 7.3 -1.1 5.6 89 0.8 SW 39 50 21 27 1012.5 1012.4 0.2
22/06:00pm 7.6 -0.4 5.7 88 0.9 SW 37 48 20 26 1012.1 1011.9 0.2
22/05:51pm 7.7 0.5 5.8 88 0.9 SW 33 43 18 23 1012.2 1012.0 0.2
22/05:30pm 7.9 -0.1 5.7 86 1.0 SW 37 46 20 25 1011.8 1011.7 0.2
22/05:00pm 8.0 0.1 6.0 87 1.0 SW 37 46 20 25 1011.4 1011.2 0.2
22/04:30pm 8.2 -0.9 6.0 86 1.1 SW 43 56 23 30 1010.6 1010.5 0.2
22/04:08pm 8.4 -1.3 6.0 85 1.2 SW 46 57 25 31 1010.2 1010.0 0.2
22/04:00pm 8.5 -1.1 6.3 86 1.1 SW 46 57 25 31 1010.0 1009.8 0.2
22/03:30pm 8.7 -0.4 6.8 88 0.9 SW 44 61 24 33 1009.9 1009.7 0.2
22/03:00pm 8.4 -0.5 7.0 91 0.7 SW 43 56 23 30 1009.4 1009.2 0.0
22/02:52pm 8.5 -0.9 7.3 92 0.6 SW 46 57 25 31 1009.3 1009.1 0.0
22/02:30pm 8.5 -0.8 7.4 93 0.5 SW 46 59 25 32 1009.2 1009.0 0.0
22/02:25pm 8.5 -0.8 7.4 93 0.5 SW 46 57 25 31 1009.1 1008.9 0.0
22/02:00pm 9.2 0.1 7.0 86 1.1 SW 44 63 24 34 1008.9 1008.7 0.0
22/01:55pm 9.4 0.3 7.0 85 1.2 SW 44 63 24 34 1008.9 1008.7 0.0
22/01:30pm 9.2 -0.5 7.3 88 0.9 SW 48 61 26 33 1008.6 1008.3 0.0
22/01:00pm 9.2 0.1 8.4 95 0.4 SW 46 59 25 32 1008.6 1008.3 0.0
22/12:30pm 9.6 0.9 7.9 89 0.9 SW 43 54 23 29 1008.8 1008.6 0.0
22/12:19pm 9.3 1.0 7.6 89 0.9 SW 41 59 22 32 1008.8 1008.6 0.0
22/12:00pm 9.6 0.8 7.4 86 1.1 SSW 43 56 23 30 1008.8 1008.6 0.0
22/11:30am 9.4 1.4 7.5 88 1.0 SW 39 54 21 29 1008.9 1008.7 0.0
22/11:16am 9.2 0.4 7.3 88 0.9 SW 43 57 23 31 1008.8 1008.6 0.0
22/11:00am 8.9 0.0 7.0 88 0.9 SW 43 54 23 29 1008.7 1008.4 0.0
22/10:45am 8.5 -0.4 6.8 89 0.8 SW 43 61 23 33 1008.6 1008.3 0.0
22/10:30am 8.2 -0.7 6.7 90 0.7 SW 43 56 23 30 1008.7 1008.4 0.0
22/10:00am 7.9 -1.3 6.4 90 0.7 SSW 44 59 24 32 1008.7 1008.4 0.0
22/09:30am 7.7 -0.5 6.5 92 0.6 SW 39 54 21 29 1008.9 1008.7 0.0
22/09:05am 7.5 -0.7 6.4 93 0.5 SSW 39 50 21 27 1008.7 1008.4 0.0
22/09:00am 7.4 -0.9 6.2 92 0.6 SSW 39 54 21 29 1008.7 1008.4 5.6

Latest Capital City Observations: Canberra | Sydney | Melbourne | Brisbane | Adelaide | Perth | Hobart | Darwin

Other Formats:

Comma delimited format used in spreadsheet applications
http://www.bom.gov.au/fwo/IDN60903/IDN60903.94921.axf

JavaScript Object Notation format (JSON) in row-major order
http://www.bom.gov.au/fwo/IDN60903/IDN60903.94921.json